sensor_id;sensor_type;location;lat;lon;timestamp;pressure;altitude;pressure_sealevel;temperature;humidity
30714;BME280;17465;47.934;33.430;2022-09-01T00:00:47;99785.69;;;21.17;90.19
30714;BME280;17465;47.934;33.430;2022-09-01T00:03:19;99787.48;;;21.12;91.82
30714;BME280;17465;47.934;33.430;2022-09-01T00:05:51;99784.48;;;21.18;90.77
30714;BME280;17465;47.934;33.430;2022-09-01T00:08:23;99782.25;;;21.18;93.56
30714;BME280;17465;47.934;33.430;2022-09-01T00:10:53;99782.25;;;21.18;93.56
30714;BME280;17465;47.934;33.430;2022-09-01T00:13:24;99787.09;;;21.21;91.99
30714;BME280;17465;47.934;33.430;2022-09-01T00:15:54;99779.25;;;21.20;91.38
30714;BME280;17465;47.934;33.430;2022-09-01T00:18:26;99787.30;;;21.22;92.99
30714;BME280;17465;47.934;33.430;2022-09-01T00:20:57;99775.58;;;21.09;92.34
30714;BME280;17465;47.934;33.430;2022-09-01T00:23:28;99775.58;;;21.09;92.34
30714;BME280;17465;47.934;33.430;2022-09-01T00:25:58;99786.45;;;21.00;92.66
30714;BME280;17465;47.934;33.430;2022-09-01T00:28:31;99786.45;;;21.00;92.66
30714;BME280;17465;47.934;33.430;2022-09-01T00:31:01;99788.07;;;21.01;93.92
30714;BME280;17465;47.934;33.430;2022-09-01T00:33:35;99784.25;;;21.03;95.67
30714;BME280;17465;47.934;33.430;2022-09-01T00:36:06;99784.25;;;21.03;95.67
30714;BME280;17465;47.934;33.430;2022-09-01T00:38:37;99789.00;;;20.82;95.44
30714;BME280;17465;47.934;33.430;2022-09-01T00:41:09;99789.00;;;20.82;95.44
30714;BME280;17465;47.934;33.430;2022-09-01T00:46:22;99781.95;;;20.85;95.88
30714;BME280;17465;47.934;33.430;2022-09-01T00:48:56;99787.31;;;20.74;95.29
30714;BME280;17465;47.934;33.430;2022-09-01T00:51:27;99783.28;;;20.68;96.46
30714;BME280;17465;47.934;33.430;2022-09-01T00:54:00;99783.28;;;20.68;96.46
30714;BME280;17465;47.934;33.430;2022-09-01T00:56:38;99788.09;;;20.60;97.42
30714;BME280;17465;47.934;33.430;2022-09-01T00:59:12;99788.09;;;20.60;97.42
30714;BME280;17465;47.934;33.430;2022-09-01T01:01:43;99778.34;;;20.51;97.99
30714;BME280;17465;47.934;33.430;2022-09-01T01:04:14;99786.23;;;20.55;99.11
30714;BME280;17465;47.934;33.430;2022-09-01T01:06:53;99786.23;;;20.55;99.11
30714;BME280;17465;47.934;33.430;2022-09-01T01:09:21;99785.02;;;20.49;99.13
30714;BME280;17465;47.934;33.430;2022-09-01T01:11:52;99776.51;;;20.42;99.35
30714;BME280;17465;47.934;33.430;2022-09-01T01:14:22;99786.95;;;20.34;99.65
30714;BME280;17465;47.934;33.430;2022-09-01T01:16:53;99786.95;;;20.34;99.65
30714;BME280;17465;47.934;33.430;2022-09-01T01:19:43;99780.00;;;20.18;99.75
30714;BME280;17465;47.934;33.430;2022-09-01T01:22:16;99780.00;;;20.18;99.75
30714;BME280;17465;47.934;33.430;2022-09-01T01:24:45;99793.88;;;20.17;99.98
30714;BME280;17465;47.934;33.430;2022-09-01T01:27:15;99792.88;;;20.16;100.00
30714;BME280;17465;47.934;33.430;2022-09-01T01:29:47;99795.09;;;20.20;100.00
30714;BME280;17465;47.934;33.430;2022-09-01T01:32:19;99796.13;;;20.21;99.77
30714;BME280;17465;47.934;33.430;2022-09-01T01:34:51;99796.13;;;20.21;99.77
30714;BME280;17465;47.934;33.430;2022-09-01T01:37:22;99797.67;;;20.12;100.00
30714;BME280;17465;47.934;33.430;2022-09-01T01:39:53;99802.06;;;20.09;100.00
30714;BME280;17465;47.934;33.430;2022-09-01T01:42:23;99800.86;;;20.10;100.00
30714;BME280;17465;47.934;33.430;2022-09-01T01:44:54;99800.86;;;20.10;100.00
30714;BME280;17465;47.934;33.430;2022-09-01T01:47:24;99805.88;;;20.07;100.00
30714;BME280;17465;47.934;33.430;2022-09-01T01:49:55;99805.88;;;20.07;100.00
30714;BME280;17465;47.934;33.430;2022-09-01T01:52:26;99806.91;;;20.09;100.00
30714;BME280;17465;47.934;33.430;2022-09-01T01:54:59;99799.27;;;19.89;100.00
30714;BME280;17465;47.934;33.430;2022-09-01T01:57:31;99799.27;;;19.89;100.00
30714;BME280;17465;47.934;33.430;2022-09-01T02:00:04;99800.33;;;19.94;100.00
30714;BME280;17465;47.934;33.430;2022-09-01T02:02:35;99800.33;;;19.94;100.00
30714;BME280;17465;47.934;33.430;2022-09-01T02:05:06;99795.30;;;19.94;100.00
30714;BME280;17465;47.934;33.430;2022-09-01T02:07:37;99796.45;;;19.89;100.00
30714;BME280;17465;47.934;33.430;2022-09-01T02:10:08;99796.45;;;19.89;100.00
30714;BME280;17465;47.934;33.430;2022-09-01T02:12:40;99798.49;;;19.92;100.00
30714;BME280;17465;47.934;33.430;2022-09-01T02:15:11;99801.10;;;19.91;100.00
30714;BME280;17465;47.934;33.430;2022-09-01T02:17:42;99798.61;;;19.79;100.00
30714;BME280;17465;47.934;33.430;2022-09-01T02:20:19;99794.75;;;19.78;100.00
30714;BME280;17465;47.934;33.430;2022-09-01T02:22:49;99798.82;;;19.80;100.00
30714;BME280;17465;47.934;33.430;2022-09-01T02:25:19;99798.82;;;19.80;100.00
30714;BME280;17465;47.934;33.430;2022-09-01T02:27:52;99796.00;;;19.80;100.00
30714;BME280;17465;47.934;33.430;2022-09-01T02:30:22;99793.54;;;19.75;100.00
30714;BME280;17465;47.934;33.430;2022-09-01T02:32:53;99795.74;;;19.76;100.00
30714;BME280;17465;47.934;33.430;2022-09-01T02:35:23;99788.41;;;19.64;100.00
30714;BME280;17465;47.934;33.430;2022-09-01T02:37:54;99792.00;;;19.61;100.00
30714;BME280;17465;47.934;33.430;2022-09-01T02:40:26;99792.00;;;19.61;100.00
30714;BME280;17465;47.934;33.430;2022-09-01T02:42:57;99785.92;;;19.56;100.00
30714;BME280;17465;47.934;33.430;2022-09-01T02:45:28;99785.92;;;19.56;100.00
30714;BME280;17465;47.934;33.430;2022-09-01T02:47:58;99793.02;;;19.59;100.00
30714;BME280;17465;47.934;33.430;2022-09-01T02:50:29;99794.34;;;19.52;100.00
30714;BME280;17465;47.934;33.430;2022-09-01T02:53:00;99802.58;;;19.51;100.00
30714;BME280;17465;47.934;33.430;2022-09-01T02:55:32;99795.75;;;19.52;100.00
30714;BME280;17465;47.934;33.430;2022-09-01T02:58:03;99796.93;;;19.48;100.00
30714;BME280;17465;47.934;33.430;2022-09-01T03:00:35;99796.93;;;19.48;100.00
30714;BME280;17465;47.934;33.430;2022-09-01T03:03:07;99799.74;;;19.48;100.00
30714;BME280;17465;47.934;33.430;2022-09-01T03:05:38;99805.88;;;19.40;100.00
30714;BME280;17465;47.934;33.430;2022-09-01T03:08:10;99807.70;;;19.42;100.00
30714;BME280;17465;47.934;33.430;2022-09-01T03:10:43;99804.52;;;19.44;100.00
30714;BME280;17465;47.934;33.430;2022-09-01T03:13:16;99801.52;;;19.46;100.00
30714;BME280;17465;47.934;33.430;2022-09-01T03:15:47;99807.28;;;19.40;100.00
30714;BME280;17465;47.934;33.430;2022-09-01T03:18:18;99811.21;;;19.49;100.00
30714;BME280;17465;47.934;33.430;2022-09-01T03:20:48;99821.30;;;19.53;100.00
30714;BME280;17465;47.934;33.430;2022-09-01T03:23:19;99821.30;;;19.53;100.00
30714;BME280;17465;47.934;33.430;2022-09-01T03:25:49;99816.79;;;19.45;100.00
30714;BME280;17465;47.934;33.430;2022-09-01T03:28:21;99813.02;;;19.51;100.00
30714;BME280;17465;47.934;33.430;2022-09-01T03:30:53;99813.02;;;19.51;100.00
30714;BME280;17465;47.934;33.430;2022-09-01T03:33:26;99815.45;;;19.52;100.00
30714;BME280;17465;47.934;33.430;2022-09-01T03:35:57;99812.44;;;19.51;100.00
30714;BME280;17465;47.934;33.430;2022-09-01T03:38:27;99817.45;;;19.52;100.00
30714;BME280;17465;47.934;33.430;2022-09-01T03:41:00;99808.13;;;19.44;100.00
30714;BME280;17465;47.934;33.430;2022-09-01T03:43:33;99813.97;;;19.45;100.00
30714;BME280;17465;47.934;33.430;2022-09-01T03:46:05;99819.26;;;19.50;100.00
30714;BME280;17465;47.934;33.430;2022-09-01T03:48:36;99826.88;;;19.50;100.00
30714;BME280;17465;47.934;33.430;2022-09-01T03:51:07;99825.13;;;19.55;100.00
30714;BME280;17465;47.934;33.430;2022-09-01T03:53:38;99825.13;;;19.55;100.00
30714;BME280;17465;47.934;33.430;2022-09-01T03:56:08;99826.51;;;19.51;100.00
30714;BME280;17465;47.934;33.430;2022-09-01T03:58:40;99828.57;;;19.58;100.00
30714;BME280;17465;47.934;33.430;2022-09-01T04:01:10;99842.83;;;19.75;100.00
30714;BME280;17465;47.934;33.430;2022-09-01T04:03:43;99842.83;;;19.75;100.00
30714;BME280;17465;47.934;33.430;2022-09-01T04:06:13;99835.22;;;19.79;100.00
30714;BME280;17465;47.934;33.430;2022-09-01T04:08:45;99837.34;;;19.93;100.00
30714;BME280;17465;47.934;33.430;2022-09-01T04:11:17;99837.34;;;19.93;100.00
30714;BME280;17465;47.934;33.430;2022-09-01T04:13:49;99846.38;;;19.92;100.00
30714;BME280;17465;47.934;33.430;2022-09-01T04:16:23;99847.98;;;20.13;100.00
30714;BME280;17465;47.934;33.430;2022-09-01T04:18:54;99849.61;;;20.14;100.00
30714;BME280;17465;47.934;33.430;2022-09-01T04:21:25;99849.61;;;20.14;100.00
30714;BME280;17465;47.934;33.430;2022-09-01T04:23:56;99846.70;;;20.27;100.00
30714;BME280;17465;47.934;33.430;2022-09-01T04:26:26;99848.61;;;20.43;100.00
30714;BME280;17465;47.934;33.430;2022-09-01T04:28:57;99837.76;;;20.48;100.00
30714;BME280;17465;47.934;33.430;2022-09-01T04:31:28;99840.89;;;20.67;98.75
30714;BME280;17465;47.934;33.430;2022-09-01T04:33:58;99845.91;;;20.64;99.05
30714;BME280;17465;47.934;33.430;2022-09-01T04:36:29;99845.91;;;20.64;99.05
30714;BME280;17465;47.934;33.430;2022-09-01T04:39:03;99851.77;;;20.68;99.42
30714;BME280;17465;47.934;33.430;2022-09-01T04:41:34;99851.94;;;21.00;98.93
30714;BME280;17465;47.934;33.430;2022-09-01T04:44:07;99851.94;;;21.00;98.93
30714;BME280;17465;47.934;33.430;2022-09-01T04:46:40;99848.99;;;21.20;96.00
30714;BME280;17465;47.934;33.430;2022-09-01T04:49:12;99848.99;;;21.20;96.00
30714;BME280;17465;47.934;33.430;2022-09-01T04:51:45;99851.84;;;21.30;95.92
30714;BME280;17465;47.934;33.430;2022-09-01T04:54:18;99846.86;;;21.50;94.96
30714;BME280;17465;47.934;33.430;2022-09-01T04:56:51;99839.38;;;21.34;94.27
30714;BME280;17465;47.934;33.430;2022-09-01T04:59:23;99842.84;;;21.48;95.45
30714;BME280;17465;47.934;33.430;2022-09-01T05:01:54;99842.84;;;21.48;95.45
30714;BME280;17465;47.934;33.430;2022-09-01T05:04:29;99839.98;;;21.41;92.56
30714;BME280;17465;47.934;33.430;2022-09-01T05:06:59;99850.14;;;21.66;93.13
30714;BME280;17465;47.934;33.430;2022-09-01T05:09:33;99843.10;;;21.70;91.75
30714;BME280;17465;47.934;33.430;2022-09-01T05:12:08;99844.33;;;21.90;92.44
30714;BME280;17465;47.934;33.430;2022-09-01T05:14:45;99850.17;;;21.94;93.16
30714;BME280;17465;47.934;33.430;2022-09-01T05:17:16;99850.17;;;21.94;93.16
30714;BME280;17465;47.934;33.430;2022-09-01T05:19:47;99842.27;;;21.83;89.76
30714;BME280;17465;47.934;33.430;2022-09-01T05:22:24;99848.95;;;21.88;90.45
30714;BME280;17465;47.934;33.430;2022-09-01T05:24:54;99845.73;;;21.93;88.85
30714;BME280;17465;47.934;33.430;2022-09-01T05:27:25;99846.92;;;22.13;89.93
30714;BME280;17465;47.934;33.430;2022-09-01T05:29:55;99845.33;;;22.16;88.86
30714;BME280;17465;47.934;33.430;2022-09-01T05:32:27;99855.99;;;22.30;87.70
30714;BME280;17465;47.934;33.430;2022-09-01T05:34:57;99855.62;;;22.42;88.04
30714;BME280;17465;47.934;33.430;2022-09-01T05:37:28;99851.73;;;22.65;84.39
30714;BME280;17465;47.934;33.430;2022-09-01T05:40:00;99855.94;;;22.72;84.10
30714;BME280;17465;47.934;33.430;2022-09-01T05:42:31;99855.94;;;22.72;84.10
30714;BME280;17465;47.934;33.430;2022-09-01T05:45:01;99858.59;;;22.71;82.54
30714;BME280;17465;47.934;33.430;2022-09-01T05:47:32;99858.59;;;22.71;82.54
30714;BME280;17465;47.934;33.430;2022-09-01T05:50:04;99863.86;;;22.69;84.49
30714;BME280;17465;47.934;33.430;2022-09-01T05:52:37;99854.79;;;22.55;83.99
30714;BME280;17465;47.934;33.430;2022-09-01T05:55:09;99853.16;;;22.51;83.96
30714;BME280;17465;47.934;33.430;2022-09-01T05:57:40;99853.16;;;22.51;83.96
30714;BME280;17465;47.934;33.430;2022-09-01T06:00:11;99860.12;;;22.96;84.72
30714;BME280;17465;47.934;33.430;2022-09-01T06:02:42;99860.12;;;22.96;84.72
30714;BME280;17465;47.934;33.430;2022-09-01T06:05:13;99864.60;;;22.87;85.48
30714;BME280;17465;47.934;33.430;2022-09-01T06:07:44;99862.70;;;23.06;82.77
30714;BME280;17465;47.934;33.430;2022-09-01T06:10:14;99862.70;;;23.06;82.77
30714;BME280;17465;47.934;33.430;2022-09-01T06:12:45;99867.03;;;22.85;83.64
30714;BME280;17465;47.934;33.430;2022-09-01T06:15:18;99869.49;;;22.72;85.11
30714;BME280;17465;47.934;33.430;2022-09-01T06:17:49;99873.13;;;22.76;83.76
30714;BME280;17465;47.934;33.430;2022-09-01T06:20:19;99878.23;;;23.20;82.22
30714;BME280;17465;47.934;33.430;2022-09-01T06:22:50;99878.23;;;23.20;82.22
30714;BME280;17465;47.934;33.430;2022-09-01T06:25:20;99878.20;;;23.98;79.08
30714;BME280;17465;47.934;33.430;2022-09-01T06:27:51;99882.56;;;24.57;74.10
30714;BME280;17465;47.934;33.430;2022-09-01T06:30:25;99890.38;;;25.23;69.96
30714;BME280;17465;47.934;33.430;2022-09-01T06:32:56;99889.80;;;25.80;70.19
30714;BME280;17465;47.934;33.430;2022-09-01T06:35:26;99894.06;;;25.65;65.83
30714;BME280;17465;47.934;33.430;2022-09-01T06:37:58;99886.63;;;25.45;68.49
30714;BME280;17465;47.934;33.430;2022-09-01T06:40:29;99887.91;;;25.40;67.10
30714;BME280;17465;47.934;33.430;2022-09-01T06:43:01;99888.02;;;24.78;72.07
30714;BME280;17465;47.934;33.430;2022-09-01T06:45:38;99888.02;;;24.78;72.07
30714;BME280;17465;47.934;33.430;2022-09-01T06:48:08;99899.98;;;25.92;69.52
30714;BME280;17465;47.934;33.430;2022-09-01T06:50:39;99894.13;;;26.03;66.19
30714;BME280;17465;47.934;33.430;2022-09-01T06:53:12;99896.07;;;26.32;67.29
30714;BME280;17465;47.934;33.430;2022-09-01T06:55:47;99896.07;;;26.32;67.29
30714;BME280;17465;47.934;33.430;2022-09-01T06:58:17;99914.83;;;27.49;61.65
30714;BME280;17465;47.934;33.430;2022-09-01T07:00:49;99905.17;;;26.35;63.56
30714;BME280;17465;47.934;33.430;2022-09-01T07:03:21;99905.17;;;26.35;63.56
30714;BME280;17465;47.934;33.430;2022-09-01T07:05:52;99904.39;;;26.08;67.04
30714;BME280;17465;47.934;33.430;2022-09-01T07:08:25;99909.24;;;26.23;64.85
30714;BME280;17465;47.934;33.430;2022-09-01T07:10:55;99909.24;;;26.23;64.85
30714;BME280;17465;47.934;33.430;2022-09-01T07:13:28;99904.62;;;25.65;69.06
30714;BME280;17465;47.934;33.430;2022-09-01T07:16:00;99902.24;;;25.60;69.25
30714;BME280;17465;47.934;33.430;2022-09-01T07:18:33;99902.24;;;25.60;69.25
30714;BME280;17465;47.934;33.430;2022-09-01T07:21:05;99905.08;;;25.48;68.18
30714;BME280;17465;47.934;33.430;2022-09-01T07:23:38;99906.98;;;25.70;69.17
30714;BME280;17465;47.934;33.430;2022-09-01T07:26:11;99906.08;;;25.79;70.70
30714;BME280;17465;47.934;33.430;2022-09-01T07:28:47;99909.27;;;25.96;66.45
30714;BME280;17465;47.934;33.430;2022-09-01T07:31:24;99909.27;;;25.96;66.45
30714;BME280;17465;47.934;33.430;2022-09-01T07:33:59;99904.92;;;25.59;64.33
30714;BME280;17465;47.934;33.430;2022-09-01T07:36:35;99904.92;;;25.59;64.33
30714;BME280;17465;47.934;33.430;2022-09-01T07:39:07;99901.78;;;25.94;63.53
30714;BME280;17465;47.934;33.430;2022-09-01T07:41:40;99897.64;;;26.60;59.73
30714;BME280;17465;47.934;33.430;2022-09-01T07:44:12;99896.33;;;26.30;57.88
30714;BME280;17465;47.934;33.430;2022-09-01T07:46:43;99897.11;;;26.68;58.82
30714;BME280;17465;47.934;33.430;2022-09-01T07:49:14;99897.11;;;26.68;58.82
30714;BME280;17465;47.934;33.430;2022-09-01T07:51:46;99889.55;;;25.97;58.08
30714;BME280;17465;47.934;33.430;2022-09-01T07:54:17;99894.58;;;25.72;57.82
30714;BME280;17465;47.934;33.430;2022-09-01T07:56:48;99894.58;;;25.72;57.82
30714;BME280;17465;47.934;33.430;2022-09-01T07:59:20;99895.41;;;25.42;57.05
30714;BME280;17465;47.934;33.430;2022-09-01T08:01:51;99896.19;;;25.28;62.00
30714;BME280;17465;47.934;33.430;2022-09-01T08:04:21;99896.19;;;25.28;62.00
30714;BME280;17465;47.934;33.430;2022-09-01T08:06:51;99905.04;;;25.18;61.68
30714;BME280;17465;47.934;33.430;2022-09-01T08:09:22;99908.50;;;24.96;65.29
30714;BME280;17465;47.934;33.430;2022-09-01T08:11:54;99914.84;;;25.14;64.28
30714;BME280;17465;47.934;33.430;2022-09-01T08:14:27;99908.44;;;24.66;70.68
30714;BME280;17465;47.934;33.430;2022-09-01T08:17:00;99910.22;;;24.90;65.70
30714;BME280;17465;47.934;33.430;2022-09-01T08:19:32;99910.80;;;24.53;65.45
30714;BME280;17465;47.934;33.430;2022-09-01T08:22:02;99907.72;;;24.55;68.47
30714;BME280;17465;47.934;33.430;2022-09-01T08:24:32;99907.72;;;24.55;68.47
30714;BME280;17465;47.934;33.430;2022-09-01T08:27:03;99908.80;;;24.24;63.38
30714;BME280;17465;47.934;33.430;2022-09-01T08:29:34;99901.86;;;24.29;65.28
30714;BME280;17465;47.934;33.430;2022-09-01T08:32:05;99898.39;;;24.29;66.21
30714;BME280;17465;47.934;33.430;2022-09-01T08:34:35;99895.57;;;24.73;62.52
30714;BME280;17465;47.934;33.430;2022-09-01T08:37:06;99893.05;;;24.82;69.03
30714;BME280;17465;47.934;33.430;2022-09-01T08:39:37;99893.05;;;24.82;69.03
30714;BME280;17465;47.934;33.430;2022-09-01T08:42:22;99900.17;;;25.78;61.79
30714;BME280;17465;47.934;33.430;2022-09-01T08:45:10;99889.74;;;25.69;58.39
30714;BME280;17465;47.934;33.430;2022-09-01T08:47:40;99889.74;;;25.69;58.39
30714;BME280;17465;47.934;33.430;2022-09-01T08:50:16;99891.06;;;25.90;58.12
30714;BME280;17465;47.934;33.430;2022-09-01T08:53:40;99898.55;;;25.63;64.81
30714;BME280;17465;47.934;33.430;2022-09-01T08:55:30;99892.84;;;26.30;57.94
30714;BME280;17465;47.934;33.430;2022-09-01T08:57:58;99891.31;;;26.37;57.20
30714;BME280;17465;47.934;33.430;2022-09-01T09:00:37;99895.08;;;27.11;55.57
30714;BME280;17465;47.934;33.430;2022-09-01T09:17:27;99884.20;;;27.25;53.70
30714;BME280;17465;47.934;33.430;2022-09-01T09:19:57;99881.72;;;27.82;51.71
30714;BME280;17465;47.934;33.430;2022-09-01T09:22:29;99873.97;;;26.17;56.88
30714;BME280;17465;47.934;33.430;2022-09-01T09:25:09;99873.97;;;26.17;56.88
30714;BME280;17465;47.934;33.430;2022-09-01T09:27:43;99869.28;;;26.18;55.87
30714;BME280;17465;47.934;33.430;2022-09-01T09:30:20;99869.28;;;26.18;55.87
30714;BME280;17465;47.934;33.430;2022-09-01T09:32:53;99869.23;;;25.69;53.92
30714;BME280;17465;47.934;33.430;2022-09-01T09:35:32;99867.24;;;25.51;62.43
30714;BME280;17465;47.934;33.430;2022-09-01T09:41:03;99873.81;;;25.60;60.49
30714;BME280;17465;47.934;33.430;2022-09-01T09:43:45;99873.81;;;25.60;60.49
30714;BME280;17465;47.934;33.430;2022-09-01T09:46:39;99875.06;;;25.44;68.76
30714;BME280;17465;47.934;33.430;2022-09-01T09:49:23;99868.16;;;25.30;60.85
30714;BME280;17465;47.934;33.430;2022-09-01T09:54:58;99873.38;;;25.79;58.30
30714;BME280;17465;47.934;33.430;2022-09-01T09:57:30;99873.38;;;25.79;58.30
30714;BME280;17465;47.934;33.430;2022-09-01T10:00:06;99879.73;;;25.72;58.23
30714;BME280;17465;47.934;33.430;2022-09-01T10:02:40;99879.73;;;25.72;58.23
30714;BME280;17465;47.934;33.430;2022-09-01T10:08:13;99882.22;;;26.34;58.77
30714;BME280;17465;47.934;33.430;2022-09-01T10:10:41;99884.49;;;26.46;56.21
30714;BME280;17465;47.934;33.430;2022-09-01T10:13:16;99893.33;;;26.94;53.14
30714;BME280;17465;47.934;33.430;2022-09-01T10:15:51;99895.66;;;27.41;52.64
30714;BME280;17465;47.934;33.430;2022-09-01T10:18:43;99894.03;;;29.35;48.36
30714;BME280;17465;47.934;33.430;2022-09-01T10:21:01;99894.03;;;29.35;48.36
30714;BME280;17465;47.934;33.430;2022-09-01T10:23:34;99898.96;;;30.50;46.22
30714;BME280;17465;47.934;33.430;2022-09-01T10:31:34;99897.81;;;31.23;40.19
30714;BME280;17465;47.934;33.430;2022-09-01T10:34:09;99902.86;;;33.19;34.39
30714;BME280;17465;47.934;33.430;2022-09-01T10:36:40;99900.80;;;32.53;37.15
30714;BME280;17465;47.934;33.430;2022-09-01T10:39:16;99900.80;;;32.53;37.15
30714;BME280;17465;47.934;33.430;2022-09-01T10:41:54;99888.75;;;32.28;37.66
30714;BME280;17465;47.934;33.430;2022-09-01T10:44:28;99882.44;;;32.55;36.29
30714;BME280;17465;47.934;33.430;2022-09-01T10:47:22;99881.84;;;32.69;38.39
30714;BME280;17465;47.934;33.430;2022-09-01T10:58:24;99878.42;;;31.32;36.56
30714;BME280;17465;47.934;33.430;2022-09-01T11:01:00;99867.08;;;31.07;39.75
30714;BME280;17465;47.934;33.430;2022-09-01T11:03:38;99867.08;;;31.07;39.75
30714;BME280;17465;47.934;33.430;2022-09-01T11:06:12;99874.87;;;31.44;40.19
30714;BME280;17465;47.934;33.430;2022-09-01T11:08:55;99872.13;;;32.23;35.74
30714;BME280;17465;47.934;33.430;2022-09-01T11:14:22;99861.33;;;32.01;35.92
30714;BME280;17465;47.934;33.430;2022-09-01T11:17:16;99865.41;;;33.64;33.69
30714;BME280;17465;47.934;33.430;2022-09-01T11:19:56;99861.25;;;32.18;36.89
30714;BME280;17465;47.934;33.430;2022-09-01T11:25:41;99852.84;;;31.20;39.59
30714;BME280;17465;47.934;33.430;2022-09-01T11:34:06;99850.86;;;30.32;39.67
30714;BME280;17465;47.934;33.430;2022-09-01T11:36:51;99839.96;;;28.84;42.96
30714;BME280;17465;47.934;33.430;2022-09-01T11:41:59;99846.11;;;28.30;44.99
30714;BME280;17465;47.934;33.430;2022-09-01T11:44:46;99846.11;;;28.30;44.99
30714;BME280;17465;47.934;33.430;2022-09-01T11:47:25;99843.59;;;28.08;44.03
30714;BME280;17465;47.934;33.430;2022-09-01T11:50:04;99840.56;;;28.47;44.44
30714;BME280;17465;47.934;33.430;2022-09-01T11:52:37;99840.56;;;28.47;44.44
30714;BME280;17465;47.934;33.430;2022-09-01T11:55:09;99843.67;;;28.12;44.17
30714;BME280;17465;47.934;33.430;2022-09-01T11:57:40;99857.34;;;31.26;39.08
30714;BME280;17465;47.934;33.430;2022-09-01T12:00:13;99857.34;;;31.26;39.08
30714;BME280;17465;47.934;33.430;2022-09-01T12:02:49;99860.56;;;32.45;36.41
30714;BME280;17465;47.934;33.430;2022-09-01T12:05:30;99848.83;;;31.39;34.85
30714;BME280;17465;47.934;33.430;2022-09-01T12:08:04;99844.08;;;31.02;37.46
30714;BME280;17465;47.934;33.430;2022-09-01T12:10:37;99839.58;;;30.63;37.31
30714;BME280;17465;47.934;33.430;2022-09-01T12:13:55;99839.58;;;30.63;37.31
30714;BME280;17465;47.934;33.430;2022-09-01T12:16:29;99831.97;;;28.99;43.92
30714;BME280;17465;47.934;33.430;2022-09-01T12:19:21;99831.97;;;28.99;43.92
30714;BME280;17465;47.934;33.430;2022-09-01T12:21:54;99835.41;;;28.70;43.78
30714;BME280;17465;47.934;33.430;2022-09-01T12:24:25;99836.41;;;29.08;42.87
30714;BME280;17465;47.934;33.430;2022-09-01T12:26:56;99836.41;;;29.08;42.87
30714;BME280;17465;47.934;33.430;2022-09-01T12:29:29;99836.95;;;28.59;40.41
30714;BME280;17465;47.934;33.430;2022-09-01T12:32:05;99831.64;;;29.71;41.87
30714;BME280;17465;47.934;33.430;2022-09-01T12:34:58;99831.64;;;29.71;41.87
30714;BME280;17465;47.934;33.430;2022-09-01T12:39:59;99847.11;;;31.03;38.49
30714;BME280;17465;47.934;33.430;2022-09-01T12:42:32;99835.41;;;30.76;39.29
30714;BME280;17465;47.934;33.430;2022-09-01T12:45:09;99835.41;;;30.76;39.29
30714;BME280;17465;47.934;33.430;2022-09-01T12:53:14;99829.11;;;29.60;40.70
30714;BME280;17465;47.934;33.430;2022-09-01T12:59:13;99834.84;;;29.19;39.13
30714;BME280;17465;47.934;33.430;2022-09-01T13:01:50;99836.64;;;30.71;37.33
30714;BME280;17465;47.934;33.430;2022-09-01T13:04:28;99841.61;;;31.82;34.23
30714;BME280;17465;47.934;33.430;2022-09-01T13:07:03;99845.38;;;32.40;37.46
30714;BME280;17465;47.934;33.430;2022-09-01T13:09:36;99845.12;;;31.81;36.14
30714;BME280;17465;47.934;33.430;2022-09-01T13:12:18;99827.70;;;30.23;38.66
30714;BME280;17465;47.934;33.430;2022-09-01T13:14:50;99826.11;;;28.82;44.09
30714;BME280;17465;47.934;33.430;2022-09-01T13:17:21;99826.38;;;28.43;41.38
30714;BME280;17465;47.934;33.430;2022-09-01T13:19:52;99831.09;;;28.42;44.37
30714;BME280;17465;47.934;33.430;2022-09-01T13:22:24;99831.09;;;28.42;44.37
30714;BME280;17465;47.934;33.430;2022-09-01T13:25:03;99836.69;;;28.69;40.04
30714;BME280;17465;47.934;33.430;2022-09-01T13:27:34;99830.38;;;28.22;41.02
30714;BME280;17465;47.934;33.430;2022-09-01T13:30:14;99831.27;;;28.19;45.54
30714;BME280;17465;47.934;33.430;2022-09-01T13:32:44;99831.27;;;28.19;45.54
30714;BME280;17465;47.934;33.430;2022-09-01T13:35:19;99850.61;;;28.83;41.17
30714;BME280;17465;47.934;33.430;2022-09-01T13:37:52;99850.61;;;28.83;41.17
30714;BME280;17465;47.934;33.430;2022-09-01T13:40:27;99848.81;;;28.89;42.00
30714;BME280;17465;47.934;33.430;2022-09-01T13:42:59;99849.54;;;29.67;37.92
30714;BME280;17465;47.934;33.430;2022-09-01T13:45:29;99849.54;;;29.67;37.92
30714;BME280;17465;47.934;33.430;2022-09-01T13:48:01;99847.19;;;28.72;40.83
30714;BME280;17465;47.934;33.430;2022-09-01T13:50:33;99839.94;;;27.09;44.06
30714;BME280;17465;47.934;33.430;2022-09-01T13:53:06;99839.94;;;27.09;44.06
30714;BME280;17465;47.934;33.430;2022-09-01T13:55:40;99839.15;;;26.67;45.02
30714;BME280;17465;47.934;33.430;2022-09-01T13:58:11;99837.94;;;26.45;46.79
30714;BME280;17465;47.934;33.430;2022-09-01T14:03:36;99846.21;;;26.01;46.79
30714;BME280;17465;47.934;33.430;2022-09-01T14:06:07;99838.50;;;25.72;47.96
30714;BME280;17465;47.934;33.430;2022-09-01T14:08:40;99838.50;;;25.72;47.96
30714;BME280;17465;47.934;33.430;2022-09-01T14:11:17;99853.57;;;25.58;45.95
30714;BME280;17465;47.934;33.430;2022-09-01T14:13:47;99853.25;;;25.78;45.05
30714;BME280;17465;47.934;33.430;2022-09-01T14:16:18;99848.28;;;25.86;49.00
30714;BME280;17465;47.934;33.430;2022-09-01T14:18:48;99847.42;;;25.33;47.32
30714;BME280;17465;47.934;33.430;2022-09-01T14:21:21;99847.42;;;25.33;47.32
30714;BME280;17465;47.934;33.430;2022-09-01T14:23:52;99853.77;;;25.29;47.34
30714;BME280;17465;47.934;33.430;2022-09-01T14:26:23;99858.60;;;25.32;47.76